sensor_id;sensor_type;location;lat;lon;timestamp;pressure;altitude;pressure_sealevel;temperature;humidity
62789;BME280;66401;42.016;21.454;2023-12-20T00:00:52;98774.38;;;1.33;95.96
62789;BME280;66401;42.016;21.454;2023-12-20T00:03:18;98741.22;;;1.09;95.20
62789;BME280;66401;42.016;21.454;2023-12-20T00:05:43;98763.00;;;1.26;95.66
62789;BME280;66401;42.016;21.454;2023-12-20T00:08:09;98759.63;;;1.14;95.18
62789;BME280;66401;42.016;21.454;2023-12-20T00:10:35;98730.50;;;0.93;96.10
62789;BME280;66401;42.016;21.454;2023-12-20T00:13:00;98722.38;;;0.88;95.64
62789;BME280;66401;42.016;21.454;2023-12-20T00:15:26;98732.97;;;0.94;95.34
62789;BME280;66401;42.016;21.454;2023-12-20T00:17:51;98759.19;;;1.09;95.41
62789;BME280;66401;42.016;21.454;2023-12-20T00:20:17;98720.50;;;0.90;96.16
62789;BME280;66401;42.016;21.454;2023-12-20T00:22:42;98746.56;;;1.06;96.24
62789;BME280;66401;42.016;21.454;2023-12-20T00:25:08;98718.97;;;0.98;96.25
62789;BME280;66401;42.016;21.454;2023-12-20T00:27:33;98712.81;;;0.90;96.86
62789;BME280;66401;42.016;21.454;2023-12-20T00:29:59;98702.34;;;0.81;97.24
62789;BME280;66401;42.016;21.454;2023-12-20T00:32:25;98718.38;;;0.95;96.96
62789;BME280;66401;42.016;21.454;2023-12-20T00:34:50;98734.72;;;0.94;97.30
62789;BME280;66401;42.016;21.454;2023-12-20T00:37:16;98733.06;;;1.04;96.28
62789;BME280;66401;42.016;21.454;2023-12-20T00:39:41;98735.88;;;1.01;95.53
62789;BME280;66401;42.016;21.454;2023-12-20T00:42:07;98731.56;;;0.90;95.38
62789;BME280;66401;42.016;21.454;2023-12-20T00:44:33;98719.22;;;0.84;96.30
62789;BME280;66401;42.016;21.454;2023-12-20T00:46:58;98724.81;;;0.89;95.76
62789;BME280;66401;42.016;21.454;2023-12-20T00:49:27;98731.47;;;0.80;96.65
62789;BME280;66401;42.016;21.454;2023-12-20T00:51:52;98726.81;;;0.74;97.35
62789;BME280;66401;42.016;21.454;2023-12-20T00:54:18;98718.78;;;0.68;96.91
62789;BME280;66401;42.016;21.454;2023-12-20T00:56:43;98712.13;;;0.65;96.85
62789;BME280;66401;42.016;21.454;2023-12-20T00:59:10;98707.94;;;0.64;96.23
62789;BME280;66401;42.016;21.454;2023-12-20T01:01:36;98690.81;;;0.53;97.40
62789;BME280;66401;42.016;21.454;2023-12-20T01:04:01;98707.13;;;0.64;96.51
62789;BME280;66401;42.016;21.454;2023-12-20T01:06:27;98678.47;;;0.47;96.70
62789;BME280;66401;42.016;21.454;2023-12-20T01:08:52;98707.59;;;0.69;97.43
62789;BME280;66401;42.016;21.454;2023-12-20T01:11:18;98630.19;;;0.20;97.27
62789;BME280;66401;42.016;21.454;2023-12-20T01:13:43;98692.34;;;0.56;97.20
62789;BME280;66401;42.016;21.454;2023-12-20T01:16:11;98695.50;;;0.48;97.49
62789;BME280;66401;42.016;21.454;2023-12-20T01:18:37;98695.63;;;0.58;98.05
62789;BME280;66401;42.016;21.454;2023-12-20T01:21:04;98697.94;;;0.61;98.03
62789;BME280;66401;42.016;21.454;2023-12-20T01:23:29;98687.91;;;0.47;97.22
62789;BME280;66401;42.016;21.454;2023-12-20T01:25:55;98700.38;;;0.51;96.95
62789;BME280;66401;42.016;21.454;2023-12-20T01:28:20;98680.03;;;0.39;97.51
62789;BME280;66401;42.016;21.454;2023-12-20T01:30:46;98677.44;;;0.27;97.73
62789;BME280;66401;42.016;21.454;2023-12-20T01:33:11;98693.84;;;0.36;97.85
62789;BME280;66401;42.016;21.454;2023-12-20T01:35:37;98685.13;;;0.27;98.45
62789;BME280;66401;42.016;21.454;2023-12-20T01:38:02;98688.84;;;0.23;98.28
62789;BME280;66401;42.016;21.454;2023-12-20T01:40:28;98678.84;;;0.20;97.79
62789;BME280;66401;42.016;21.454;2023-12-20T01:43:01;98597.44;;;-0.21;98.36
62789;BME280;66401;42.016;21.454;2023-12-20T01:45:27;98667.88;;;0.18;98.29
62789;BME280;66401;42.016;21.454;2023-12-20T01:47:55;98674.53;;;0.32;97.54
62789;BME280;66401;42.016;21.454;2023-12-20T01:50:21;98675.81;;;0.38;98.11
62789;BME280;66401;42.016;21.454;2023-12-20T01:52:47;98667.66;;;0.44;97.97
62789;BME280;66401;42.016;21.454;2023-12-20T01:55:13;98669.28;;;0.45;97.73
62789;BME280;66401;42.016;21.454;2023-12-20T01:57:43;98662.53;;;0.44;96.27
62789;BME280;66401;42.016;21.454;2023-12-20T02:00:11;98613.09;;;0.10;96.82
62789;BME280;66401;42.016;21.454;2023-12-20T02:02:39;98645.06;;;0.26;97.29
62789;BME280;66401;42.016;21.454;2023-12-20T02:05:08;98640.66;;;0.17;96.54
62789;BME280;66401;42.016;21.454;2023-12-20T02:07:34;98632.84;;;0.19;96.69
62789;BME280;66401;42.016;21.454;2023-12-20T02:10:03;98625.03;;;0.09;98.01
62789;BME280;66401;42.016;21.454;2023-12-20T02:12:31;98624.59;;;0.04;97.33
62789;BME280;66401;42.016;21.454;2023-12-20T02:14:56;98634.47;;;0.09;97.29
62789;BME280;66401;42.016;21.454;2023-12-20T02:17:23;98644.63;;;0.10;97.38
62789;BME280;66401;42.016;21.454;2023-12-20T02:19:49;98593.63;;;-0.15;97.18
62789;BME280;66401;42.016;21.454;2023-12-20T02:22:16;98640.53;;;0.08;97.94
62789;BME280;66401;42.016;21.454;2023-12-20T02:24:41;98633.56;;;0.10;98.32
62789;BME280;66401;42.016;21.454;2023-12-20T02:27:07;98625.63;;;0.13;98.46
62789;BME280;66401;42.016;21.454;2023-12-20T02:29:36;98627.38;;;0.12;99.37
62789;BME280;66401;42.016;21.454;2023-12-20T02:32:02;98585.81;;;-0.14;98.26
62789;BME280;66401;42.016;21.454;2023-12-20T02:34:28;98582.47;;;-0.14;99.39
62789;BME280;66401;42.016;21.454;2023-12-20T02:36:54;98623.41;;;0.08;98.45
62789;BME280;66401;42.016;21.454;2023-12-20T02:39:20;98595.50;;;-0.06;98.76
62789;BME280;66401;42.016;21.454;2023-12-20T02:41:46;98612.72;;;0.03;99.24
62789;BME280;66401;42.016;21.454;2023-12-20T02:44:12;98617.03;;;0.03;98.12
62789;BME280;66401;42.016;21.454;2023-12-20T02:46:37;98582.91;;;-0.20;98.37
62789;BME280;66401;42.016;21.454;2023-12-20T02:49:03;98582.22;;;-0.22;97.31
62789;BME280;66401;42.016;21.454;2023-12-20T02:51:28;98598.50;;;-0.12;98.29
62789;BME280;66401;42.016;21.454;2023-12-20T02:53:53;98592.22;;;-0.19;97.38
62789;BME280;66401;42.016;21.454;2023-12-20T02:56:19;98600.13;;;-0.11;98.46
62789;BME280;66401;42.016;21.454;2023-12-20T02:58:44;98602.00;;;-0.13;98.35
62789;BME280;66401;42.016;21.454;2023-12-20T03:01:10;98592.47;;;-0.22;97.61
62789;BME280;66401;42.016;21.454;2023-12-20T03:03:35;98597.13;;;-0.16;97.62
62789;BME280;66401;42.016;21.454;2023-12-20T03:06:01;98593.97;;;-0.31;98.44
62789;BME280;66401;42.016;21.454;2023-12-20T03:08:26;98589.66;;;-0.31;98.90
62789;BME280;66401;42.016;21.454;2023-12-20T03:10:52;98594.66;;;-0.29;97.88
62789;BME280;66401;42.016;21.454;2023-12-20T03:13:18;98587.81;;;-0.28;98.73
62789;BME280;66401;42.016;21.454;2023-12-20T03:15:45;98602.44;;;-0.19;98.01
62789;BME280;66401;42.016;21.454;2023-12-20T03:18:10;98577.34;;;-0.25;98.11
62789;BME280;66401;42.016;21.454;2023-12-20T03:20:36;98562.31;;;-0.30;97.46
62789;BME280;66401;42.016;21.454;2023-12-20T03:23:01;98582.91;;;-0.20;98.17
62789;BME280;66401;42.016;21.454;2023-12-20T03:25:26;98575.09;;;-0.30;98.29
62789;BME280;66401;42.016;21.454;2023-12-20T03:27:52;98582.69;;;-0.28;98.52
62789;BME280;66401;42.016;21.454;2023-12-20T03:30:18;98594.91;;;-0.21;97.61
62789;BME280;66401;42.016;21.454;2023-12-20T03:32:44;98573.59;;;-0.33;97.50
62789;BME280;66401;42.016;21.454;2023-12-20T03:35:10;98574.09;;;-0.27;98.08
62789;BME280;66401;42.016;21.454;2023-12-20T03:37:35;98569.19;;;-0.31;98.35
62789;BME280;66401;42.016;21.454;2023-12-20T03:40:01;98580.34;;;-0.20;98.22
62789;BME280;66401;42.016;21.454;2023-12-20T03:42:27;98577.91;;;-0.22;97.59
62789;BME280;66401;42.016;21.454;2023-12-20T03:44:52;98573.84;;;-0.24;98.60
62789;BME280;66401;42.016;21.454;2023-12-20T03:47:18;98579.53;;;-0.10;97.92
62789;BME280;66401;42.016;21.454;2023-12-20T03:49:43;98576.03;;;-0.20;98.96
62789;BME280;66401;42.016;21.454;2023-12-20T03:52:08;98569.53;;;-0.13;98.49
62789;BME280;66401;42.016;21.454;2023-12-20T03:54:37;98548.94;;;-0.22;99.18
62789;BME280;66401;42.016;21.454;2023-12-20T03:57:03;98555.47;;;-0.18;98.31
62789;BME280;66401;42.016;21.454;2023-12-20T03:59:29;98567.91;;;-0.14;98.61
62789;BME280;66401;42.016;21.454;2023-12-20T04:01:55;98553.94;;;-0.21;99.25
62789;BME280;66401;42.016;21.454;2023-12-20T04:04:20;98550.13;;;-0.26;98.39
62789;BME280;66401;42.016;21.454;2023-12-20T04:06:46;98529.66;;;-0.38;98.39
62789;BME280;66401;42.016;21.454;2023-12-20T04:09:11;98547.31;;;-0.23;98.21
62789;BME280;66401;42.016;21.454;2023-12-20T04:11:37;98545.44;;;-0.21;97.62
62789;BME280;66401;42.016;21.454;2023-12-20T04:14:03;98549.88;;;-0.23;96.05
62789;BME280;66401;42.016;21.454;2023-12-20T04:16:30;98543.38;;;-0.27;96.36
62789;BME280;66401;42.016;21.454;2023-12-20T04:18:56;98527.53;;;-0.44;97.41
62789;BME280;66401;42.016;21.454;2023-12-20T04:21:21;98543.34;;;-0.39;98.04
62789;BME280;66401;42.016;21.454;2023-12-20T04:23:47;98538.47;;;-0.42;97.26
62789;BME280;66401;42.016;21.454;2023-12-20T04:26:12;98532.19;;;-0.49;97.25
62789;BME280;66401;42.016;21.454;2023-12-20T04:28:38;98515.44;;;-0.64;96.06
62789;BME280;66401;42.016;21.454;2023-12-20T04:31:03;98495.91;;;-0.76;96.72
62789;BME280;66401;42.016;21.454;2023-12-20T04:33:29;98531.47;;;-0.62;96.20
62789;BME280;66401;42.016;21.454;2023-12-20T04:35:54;98518.22;;;-0.67;96.35
62789;BME280;66401;42.016;21.454;2023-12-20T04:38:20;98529.63;;;-0.60;96.87
62789;BME280;66401;42.016;21.454;2023-12-20T04:40:45;98509.72;;;-0.68;97.37
62789;BME280;66401;42.016;21.454;2023-12-20T04:43:11;98529.97;;;-0.65;98.32
62789;BME280;66401;42.016;21.454;2023-12-20T04:45:36;98504.72;;;-0.80;99.31
62789;BME280;66401;42.016;21.454;2023-12-20T04:48:02;98518.44;;;-0.70;100.00
62789;BME280;66401;42.016;21.454;2023-12-20T04:50:28;98536.59;;;-0.73;100.00
62789;BME280;66401;42.016;21.454;2023-12-20T04:52:53;98527.84;;;-0.71;100.00
62789;BME280;66401;42.016;21.454;2023-12-20T04:55:19;98531.47;;;-0.51;100.00
62789;BME280;66401;42.016;21.454;2023-12-20T04:57:45;98524.97;;;-0.55;100.00
62789;BME280;66401;42.016;21.454;2023-12-20T05:00:11;98503.56;;;-0.65;100.00
62789;BME280;66401;42.016;21.454;2023-12-20T05:02:37;98528.22;;;-0.53;100.00
62789;BME280;66401;42.016;21.454;2023-12-20T05:05:03;98534.97;;;-0.52;100.00
62789;BME280;66401;42.016;21.454;2023-12-20T05:07:28;98508.00;;;-0.56;100.00
62789;BME280;66401;42.016;21.454;2023-12-20T05:09:54;98514.25;;;-0.49;100.00
62789;BME280;66401;42.016;21.454;2023-12-20T05:12:22;98516.13;;;-0.40;100.00
62789;BME280;66401;42.016;21.454;2023-12-20T05:14:47;98512.31;;;-0.34;100.00
62789;BME280;66401;42.016;21.454;2023-12-20T05:17:13;98518.09;;;-0.21;100.00
62789;BME280;66401;42.016;21.454;2023-12-20T05:19:38;98520.06;;;-0.13;100.00
62789;BME280;66401;42.016;21.454;2023-12-20T05:22:04;98510.66;;;-0.13;100.00
62789;BME280;66401;42.016;21.454;2023-12-20T05:24:29;98502.88;;;-0.22;100.00
62789;BME280;66401;42.016;21.454;2023-12-20T05:26:55;98512.16;;;-0.21;100.00
62789;BME280;66401;42.016;21.454;2023-12-20T05:29:20;98517.06;;;-0.18;100.00
62789;BME280;66401;42.016;21.454;2023-12-20T05:31:46;98517.53;;;-0.24;100.00
62789;BME280;66401;42.016;21.454;2023-12-20T05:34:11;98509.84;;;-0.24;100.00
62789;BME280;66401;42.016;21.454;2023-12-20T05:36:37;98511.22;;;-0.20;100.00
62789;BME280;66401;42.016;21.454;2023-12-20T05:39:04;98509.59;;;-0.21;100.00
62789;BME280;66401;42.016;21.454;2023-12-20T05:41:34;98503.13;;;-0.37;100.00
62789;BME280;66401;42.016;21.454;2023-12-20T05:43:59;98494.03;;;-0.30;100.00
62789;BME280;66401;42.016;21.454;2023-12-20T05:46:25;98467.28;;;-0.37;100.00
62789;BME280;66401;42.016;21.454;2023-12-20T05:48:51;98497.50;;;-0.08;100.00
62789;BME280;66401;42.016;21.454;2023-12-20T05:51:17;98483.06;;;-0.20;100.00
62789;BME280;66401;42.016;21.454;2023-12-20T05:53:42;98502.38;;;-0.05;100.00
62789;BME280;66401;42.016;21.454;2023-12-20T05:56:09;98467.97;;;-0.23;100.00
62789;BME280;66401;42.016;21.454;2023-12-20T05:58:35;98494.13;;;-0.09;100.00
62789;BME280;66401;42.016;21.454;2023-12-20T06:01:00;98471.47;;;-0.24;100.00
62789;BME280;66401;42.016;21.454;2023-12-20T06:03:26;98478.66;;;-0.30;100.00
62789;BME280;66401;42.016;21.454;2023-12-20T06:05:51;98481.22;;;-0.30;100.00
62789;BME280;66401;42.016;21.454;2023-12-20T06:08:17;98484.38;;;-0.26;100.00
62789;BME280;66401;42.016;21.454;2023-12-20T06:10:42;98481.94;;;-0.27;100.00
62789;BME280;66401;42.016;21.454;2023-12-20T06:13:08;98476.00;;;-0.17;100.00
62789;BME280;66401;42.016;21.454;2023-12-20T06:15:34;98470.28;;;-0.09;100.00
62789;BME280;66401;42.016;21.454;2023-12-20T06:17:59;98443.31;;;-0.24;100.00
62789;BME280;66401;42.016;21.454;2023-12-20T06:20:26;98484.94;;;0.00;100.00
62789;BME280;66401;42.016;21.454;2023-12-20T06:22:51;98483.38;;;0.09;100.00
62789;BME280;66401;42.016;21.454;2023-12-20T06:25:17;98456.38;;;0.05;100.00
62789;BME280;66401;42.016;21.454;2023-12-20T06:27:42;98476.25;;;0.23;100.00
62789;BME280;66401;42.016;21.454;2023-12-20T06:30:08;98469.00;;;0.28;100.00
62789;BME280;66401;42.016;21.454;2023-12-20T06:32:34;98443.88;;;0.22;100.00
62789;BME280;66401;42.016;21.454;2023-12-20T06:35:00;98460.69;;;0.36;100.00
62789;BME280;66401;42.016;21.454;2023-12-20T06:37:26;98472.56;;;0.48;100.00
62789;BME280;66401;42.016;21.454;2023-12-20T06:39:51;98467.59;;;0.56;100.00
62789;BME280;66401;42.016;21.454;2023-12-20T06:42:17;98452.97;;;0.47;100.00
62789;BME280;66401;42.016;21.454;2023-12-20T06:44:42;98470.88;;;0.59;100.00
62789;BME280;66401;42.016;21.454;2023-12-20T06:47:08;98455.72;;;0.55;100.00
62789;BME280;66401;42.016;21.454;2023-12-20T06:49:33;98475.50;;;0.65;100.00
62789;BME280;66401;42.016;21.454;2023-12-20T06:51:59;98455.59;;;0.57;100.00
62789;BME280;66401;42.016;21.454;2023-12-20T06:54:24;98410.66;;;0.32;100.00
62789;BME280;66401;42.016;21.454;2023-12-20T06:56:50;98455.59;;;0.57;99.66
62789;BME280;66401;42.016;21.454;2023-12-20T06:59:15;98457.94;;;0.60;100.00
62789;BME280;66401;42.016;21.454;2023-12-20T07:01:41;98458.47;;;0.64;100.00
62789;BME280;66401;42.016;21.454;2023-12-20T07:04:07;98453.03;;;0.57;100.00
62789;BME280;66401;42.016;21.454;2023-12-20T07:06:32;98443.59;;;0.57;100.00
62789;BME280;66401;42.016;21.454;2023-12-20T07:08:58;98443.91;;;0.64;100.00
62789;BME280;66401;42.016;21.454;2023-12-20T07:11:23;98447.63;;;0.71;100.00
62789;BME280;66401;42.016;21.454;2023-12-20T07:13:49;98444.16;;;0.61;100.00
62789;BME280;66401;42.016;21.454;2023-12-20T07:16:15;98437.22;;;0.52;100.00
62789;BME280;66401;42.016;21.454;2023-12-20T07:18:40;98427.84;;;0.41;100.00
62789;BME280;66401;42.016;21.454;2023-12-20T07:21:06;98449.97;;;0.63;100.00
62789;BME280;66401;42.016;21.454;2023-12-20T07:23:33;98424.75;;;0.59;100.00
62789;BME280;66401;42.016;21.454;2023-12-20T07:25:59;98435.81;;;0.80;100.00
62789;BME280;66401;42.016;21.454;2023-12-20T07:28:24;98417.06;;;0.59;100.00
62789;BME280;66401;42.016;21.454;2023-12-20T07:30:50;98438.25;;;0.61;100.00
62789;BME280;66401;42.016;21.454;2023-12-20T07:33:15;98400.66;;;0.50;100.00
62789;BME280;66401;42.016;21.454;2023-12-20T07:35:41;98438.03;;;0.73;100.00
62789;BME280;66401;42.016;21.454;2023-12-20T07:38:07;98433.78;;;0.83;100.00
62789;BME280;66401;42.016;21.454;2023-12-20T07:40:32;98433.34;;;0.99;100.00
62789;BME280;66401;42.016;21.454;2023-12-20T07:42:58;98391.09;;;0.73;100.00
62789;BME280;66401;42.016;21.454;2023-12-20T07:45:24;98426.31;;;1.01;100.00
62789;BME280;66401;42.016;21.454;2023-12-20T07:47:49;98384.94;;;0.85;100.00
62789;BME280;66401;42.016;21.454;2023-12-20T07:50:15;98427.72;;;1.15;99.93
62789;BME280;66401;42.016;21.454;2023-12-20T07:52:41;98399.78;;;0.81;99.93
62789;BME280;66401;42.016;21.454;2023-12-20T07:55:07;98426.16;;;0.93;100.00
62789;BME280;66401;42.016;21.454;2023-12-20T07:57:32;98412.13;;;0.76;100.00
62789;BME280;66401;42.016;21.454;2023-12-20T07:59:58;98379.78;;;0.54;100.00
62789;BME280;66401;42.016;21.454;2023-12-20T08:02:23;98402.16;;;0.73;100.00
62789;BME280;66401;42.016;21.454;2023-12-20T08:04:49;98402.94;;;0.95;100.00
62789;BME280;66401;42.016;21.454;2023-12-20T08:07:14;98420.94;;;1.04;100.00
62789;BME280;66401;42.016;21.454;2023-12-20T08:09:40;98400.28;;;1.06;100.00
62789;BME280;66401;42.016;21.454;2023-12-20T08:12:05;98378.06;;;1.16;99.52
62789;BME280;66401;42.016;21.454;2023-12-20T08:14:31;98413.25;;;1.44;99.72
62789;BME280;66401;42.016;21.454;2023-12-20T08:16:57;98381.78;;;1.42;98.67
62789;BME280;66401;42.016;21.454;2023-12-20T08:19:22;98383.06;;;1.58;98.33
62789;BME280;66401;42.016;21.454;2023-12-20T08:21:49;98410.09;;;1.81;97.63
62789;BME280;66401;42.016;21.454;2023-12-20T08:24:15;98371.56;;;1.62;95.58
62789;BME280;66401;42.016;21.454;2023-12-20T08:26:40;98404.31;;;1.89;95.66
62789;BME280;66401;42.016;21.454;2023-12-20T08:29:07;98359.94;;;1.48;95.85
62789;BME280;66401;42.016;21.454;2023-12-20T08:31:32;98388.50;;;1.74;95.29
62789;BME280;66401;42.016;21.454;2023-12-20T08:33:57;98334.66;;;1.53;95.49
62789;BME280;66401;42.016;21.454;2023-12-20T08:36:23;98406.34;;;1.95;95.99
62789;BME280;66401;42.016;21.454;2023-12-20T08:38:49;98406.88;;;1.89;96.56
62789;BME280;66401;42.016;21.454;2023-12-20T08:41:16;98383.91;;;1.87;96.89
62789;BME280;66401;42.016;21.454;2023-12-20T08:43:42;98400.28;;;2.06;96.13
62789;BME280;66401;42.016;21.454;2023-12-20T08:46:08;98356.97;;;1.72;95.89
62789;BME280;66401;42.016;21.454;2023-12-20T08:48:37;98354.69;;;1.88;96.35
62789;BME280;66401;42.016;21.454;2023-12-20T08:51:03;98353.91;;;1.97;94.58
62789;BME280;66401;42.016;21.454;2023-12-20T08:53:29;98376.75;;;2.10;94.71
62789;BME280;66401;42.016;21.454;2023-12-20T08:55:54;98357.69;;;1.93;97.03
62789;BME280;66401;42.016;21.454;2023-12-20T08:58:20;98342.53;;;2.10;96.15
62789;BME280;66401;42.016;21.454;2023-12-20T09:00:45;98312.66;;;1.99;95.34
62789;BME280;66401;42.016;21.454;2023-12-20T09:03:11;98342.81;;;2.16;94.31
62789;BME280;66401;42.016;21.454;2023-12-20T09:05:36;98357.38;;;2.45;94.93
62789;BME280;66401;42.016;21.454;2023-12-20T09:08:02;98353.44;;;2.50;95.16
62789;BME280;66401;42.016;21.454;2023-12-20T09:10:28;98341.66;;;2.48;95.03
62789;BME280;66401;42.016;21.454;2023-12-20T09:12:53;98348.97;;;2.52;93.68
62789;BME280;66401;42.016;21.454;2023-12-20T09:15:26;98305.00;;;2.46;94.52
62789;BME280;66401;42.016;21.454;2023-12-20T09:17:53;98317.28;;;2.62;93.82
62789;BME280;66401;42.016;21.454;2023-12-20T09:20:19;98297.19;;;2.28;93.74
62789;BME280;66401;42.016;21.454;2023-12-20T09:22:44;98288.66;;;2.37;93.54
62789;BME280;66401;42.016;21.454;2023-12-20T09:25:10;98277.09;;;2.14;93.70
62789;BME280;66401;42.016;21.454;2023-12-20T09:27:36;98315.94;;;2.57;94.79
62789;BME280;66401;42.016;21.454;2023-12-20T09:30:02;98296.13;;;2.68;92.40
62789;BME280;66401;42.016;21.454;2023-12-20T09:32:29;98308.06;;;2.59;94.21
62789;BME280;66401;42.016;21.454;2023-12-20T09:34:55;98290.44;;;2.74;92.81
62789;BME280;66401;42.016;21.454;2023-12-20T09:37:20;98290.34;;;2.66;93.71
62789;BME280;66401;42.016;21.454;2023-12-20T09:39:46;98293.63;;;2.85;93.56
62789;BME280;66401;42.016;21.454;2023-12-20T09:42:12;98283.00;;;2.98;92.98
62789;BME280;66401;42.016;21.454;2023-12-20T09:44:42;98276.03;;;3.08;93.49
62789;BME280;66401;42.016;21.454;2023-12-20T09:47:09;98272.16;;;3.04;92.95
62789;BME280;66401;42.016;21.454;2023-12-20T09:49:36;98271.69;;;2.91;92.84
62789;BME280;66401;42.016;21.454;2023-12-20T09:52:04;98255.09;;;3.03;92.97
62789;BME280;66401;42.016;21.454;2023-12-20T09:54:32;98255.72;;;3.33;93.61
62789;BME280;66401;42.016;21.454;2023-12-20T09:56:58;98247.41;;;3.57;92.94
62789;BME280;66401;42.016;21.454;2023-12-20T09:59:23;98241.03;;;3.43;91.45
62789;BME280;66401;42.016;21.454;2023-12-20T10:01:50;98230.75;;;4.13;90.23
62789;BME280;66401;42.016;21.454;2023-12-20T10:04:16;98228.75;;;4.58;88.24
62789;BME280;66401;42.016;21.454;2023-12-20T10:06:42;98184.97;;;4.32;86.10
62789;BME280;66401;42.016;21.454;2023-12-20T10:09:10;98207.31;;;4.24;87.00
62789;BME280;66401;42.016;21.454;2023-12-20T10:11:36;98198.75;;;4.23;88.21
62789;BME280;66401;42.016;21.454;2023-12-20T10:14:06;98195.03;;;4.52;87.04
62789;BME280;66401;42.016;21.454;2023-12-20T10:16:32;98158.97;;;4.18;85.36
62789;BME280;66401;42.016;21.454;2023-12-20T10:18:59;98192.19;;;4.29;86.04
62789;BME280;66401;42.016;21.454;2023-12-20T10:21:27;98193.22;;;4.78;85.74
62789;BME280;66401;42.016;21.454;2023-12-20T10:23:56;98184.31;;;4.73;84.54
62789;BME280;66401;42.016;21.454;2023-12-20T10:26:23;98181.66;;;4.99;84.21
62789;BME280;66401;42.016;21.454;2023-12-20T10:29:15;98175.91;;;5.21;81.99
62789;BME280;66401;42.016;21.454;2023-12-20T10:31:42;98174.91;;;5.22;81.05
62789;BME280;66401;42.016;21.454;2023-12-20T10:34:08;98157.97;;;5.28;81.00
62789;BME280;66401;42.016;21.454;2023-12-20T10:36:33;98164.09;;;5.35;81.13
62789;BME280;66401;42.016;21.454;2023-12-20T10:39:00;98158.31;;;5.41;80.83
62789;BME280;66401;42.016;21.454;2023-12-20T10:41:31;98149.09;;;5.22;80.54
62789;BME280;66401;42.016;21.454;2023-12-20T10:44:00;98144.47;;;6.92;79.37
62789;BME280;66401;42.016;21.454;2023-12-20T10:46:29;98134.56;;;9.81;68.13
62789;BME280;66401;42.016;21.454;2023-12-20T10:48:56;98119.75;;;11.91;58.04
62789;BME280;66401;42.016;21.454;2023-12-20T10:51:23;98117.16;;;14.85;50.84
62789;BME280;66401;42.016;21.454;2023-12-20T10:53:53;98099.81;;;15.68;46.35
62789;BME280;66401;42.016;21.454;2023-12-20T10:56:19;98111.38;;;17.44;42.35
62789;BME280;66401;42.016;21.454;2023-12-20T10:58:45;98108.31;;;17.36;42.96
62789;BME280;66401;42.016;21.454;2023-12-20T11:01:13;98101.50;;;16.61;41.83
62789;BME280;66401;42.016;21.454;2023-12-20T11:03:43;98096.19;;;17.01;41.60
62789;BME280;66401;42.016;21.454;2023-12-20T11:14:29;98059.47;;;16.38;42.41
62789;BME280;66401;42.016;21.454;2023-12-20T11:17:07;98059.47;;;16.38;42.41
62789;BME280;66401;42.016;21.454;2023-12-20T11:19:32;98052.16;;;15.41;44.08
62789;BME280;66401;42.016;21.454;2023-12-20T11:22:00;98044.09;;;14.77;44.67
62789;BME280;66401;42.016;21.454;2023-12-20T11:24:26;98046.16;;;13.72;48.82
62789;BME280;66401;42.016;21.454;2023-12-20T11:26:55;98050.00;;;14.24;47.12
62789;BME280;66401;42.016;21.454;2023-12-20T11:29:51;98034.94;;;14.20;46.46
62789;BME280;66401;42.016;21.454;2023-12-20T11:34:56;98012.84;;;13.11;48.37
62789;BME280;66401;42.016;21.454;2023-12-20T11:37:21;98019.03;;;12.92;49.72
62789;BME280;66401;42.016;21.454;2023-12-20T11:39:56;98013.22;;;12.65;50.62
62789;BME280;66401;42.016;21.454;2023-12-20T11:42:25;98006.47;;;12.44;50.85
62789;BME280;66401;42.016;21.454;2023-12-20T11:44:50;98011.91;;;12.74;50.03
62789;BME280;66401;42.016;21.454;2023-12-20T11:47:16;98012.03;;;13.60;48.67
62789;BME280;66401;42.016;21.454;2023-12-20T11:49:46;97994.09;;;13.64;47.88
62789;BME280;66401;42.016;21.454;2023-12-20T11:52:12;97995.16;;;13.56;47.21
62789;BME280;66401;42.016;21.454;2023-12-20T11:54:38;97993.63;;;13.49;48.02
62789;BME280;66401;42.016;21.454;2023-12-20T11:57:04;97992.69;;;13.98;46.13
62789;BME280;66401;42.016;21.454;2023-12-20T11:59:30;97986.25;;;13.64;47.00
62789;BME280;66401;42.016;21.454;2023-12-20T12:01:56;97969.59;;;14.25;46.48
62789;BME280;66401;42.016;21.454;2023-12-20T12:04:26;97963.25;;;13.66;46.41
62789;BME280;66401;42.016;21.454;2023-12-20T12:06:52;97949.44;;;13.59;47.57
62789;BME280;66401;42.016;21.454;2023-12-20T12:09:18;97960.81;;;13.71;46.63
62789;BME280;66401;42.016;21.454;2023-12-20T12:11:43;97936.56;;;12.96;47.92
62789;BME280;66401;42.016;21.454;2023-12-20T12:14:09;97938.31;;;12.20;50.59
62789;BME280;66401;42.016;21.454;2023-12-20T12:16:35;97945.00;;;11.52;53.49
62789;BME280;66401;42.016;21.454;2023-12-20T12:19:00;97940.38;;;11.54;54.29
62789;BME280;66401;42.016;21.454;2023-12-20T12:21:26;97921.75;;;11.50;54.61
62789;BME280;66401;42.016;21.454;2023-12-20T12:23:51;97922.88;;;11.81;54.28
62789;BME280;66401;42.016;21.454;2023-12-20T12:26:18;97918.47;;;11.68;53.82
62789;BME280;66401;42.016;21.454;2023-12-20T12:28:44;97931.19;;;11.51;54.83
62789;BME280;66401;42.016;21.454;2023-12-20T12:31:13;97929.44;;;11.18;55.52
62789;BME280;66401;42.016;21.454;2023-12-20T12:33:41;97922.94;;;11.54;53.84
62789;BME280;66401;42.016;21.454;2023-12-20T12:36:07;97927.84;;;11.17;54.71
62789;BME280;66401;42.016;21.454;2023-12-20T12:38:33;97925.88;;;10.93;56.47
62789;BME280;66401;42.016;21.454;2023-12-20T12:41:00;97922.63;;;11.17;55.65
62789;BME280;66401;42.016;21.454;2023-12-20T12:43:25;97902.19;;;11.14;54.60
62789;BME280;66401;42.016;21.454;2023-12-20T12:45:51;97917.06;;;10.68;55.66
62789;BME280;66401;42.016;21.454;2023-12-20T12:48:17;97915.88;;;10.57;55.59
62789;BME280;66401;42.016;21.454;2023-12-20T12:50:43;97920.47;;;10.68;56.48
62789;BME280;66401;42.016;21.454;2023-12-20T12:53:08;97916.66;;;10.57;56.65
62789;BME280;66401;42.016;21.454;2023-12-20T12:55:35;97909.44;;;10.93;55.83
62789;BME280;66401;42.016;21.454;2023-12-20T12:58:01;97909.66;;;10.91;56.24